Time,TemperatureF,DewpointF,PressureIn,WindDirection,WindDirectionDegrees,WindSpeedMPH,WindSpeedGustMPH,Humidity,HourlyPrecipIn,Conditions,Clouds,dailyrainin,SolarRadiationWatts/m^2,SoftwareType,DateUTC
2013-07-23 00:00:00,69.0,62.0,-100.00,South,180,1.0,-999.0,78,-99.99,,,-99.99,0.000000,,2013-07-23 04:00:00,
2013-07-23 00:43:00,69.0,62.0,-100.00,South,180,1.0,-999.0,78,-99.99,,,-99.99,0.000000,,2013-07-23 04:43:00,
2013-07-23 00:53:00,69.0,62.0,-100.00,South,180,1.0,-999.0,78,-99.99,,,-99.99,0.000000,,2013-07-23 04:53:00,
2013-07-23 01:00:00,69.0,64.0,-100.00,SSW,202,1.0,-999.0,84,-99.99,,,-99.99,0.000000,,2013-07-23 05:00:00,
2013-07-23 01:44:00,69.0,64.0,-100.00,SSW,202,1.0,-999.0,84,-99.99,,,-99.99,0.000000,,2013-07-23 05:44:00,
2013-07-23 01:52:00,69.0,64.0,-100.00,SSW,202,1.0,-999.0,84,-99.99,,,-99.99,0.000000,,2013-07-23 05:52:00,
2013-07-23 02:00:00,68.0,65.0,-100.00,SSW,202,1.0,-999.0,88,-99.99,,,-99.99,0.000000,,2013-07-23 06:00:00,
2013-07-23 02:42:00,68.0,65.0,-100.00,SSW,202,1.0,-999.0,88,-99.99,,,-99.99,0.000000,,2013-07-23 06:42:00,
2013-07-23 02:52:00,68.0,65.0,-100.00,SSW,202,1.0,-999.0,88,-99.99,,,-99.99,0.000000,,2013-07-23 06:52:00,
2013-07-23 03:00:00,68.0,65.0,-100.00,South,180,1.0,-999.0,89,-99.99,,,-99.99,0.000000,,2013-07-23 07:00:00,
2013-07-23 03:42:00,68.0,65.0,-100.00,South,180,1.0,-999.0,89,-99.99,,,-99.99,0.000000,,2013-07-23 07:42:00,
2013-07-23 03:52:00,68.0,65.0,-100.00,South,180,1.0,-999.0,89,-99.99,,,-99.99,0.000000,,2013-07-23 07:52:00,
2013-07-23 04:00:00,68.0,65.0,-100.00,South,180,2.0,-999.0,89,-99.99,,,-99.99,0.000000,,2013-07-23 08:00:00,
2013-07-23 04:43:00,68.0,65.0,-100.00,South,180,2.0,-999.0,89,-99.99,,,-99.99,0.000000,,2013-07-23 08:43:00,
2013-07-23 04:52:00,68.0,65.0,-100.00,South,180,2.0,-999.0,89,-99.99,,,-99.99,0.000000,,2013-07-23 08:52:00,
2013-07-23 05:00:00,67.0,64.0,-100.00,South,180,2.0,-999.0,91,-99.99,,,-99.99,0.000000,,2013-07-23 09:00:00,
2013-07-23 05:43:00,67.0,64.0,-100.00,South,180,2.0,-999.0,91,-99.99,,,-99.99,0.000000,,2013-07-23 09:43:00,
2013-07-23 05:53:00,67.0,64.0,-100.00,South,180,2.0,-999.0,91,-99.99,,,-99.99,0.000000,,2013-07-23 09:53:00,
2013-07-23 06:00:00,67.0,64.0,-100.00,SSW,202,2.0,-999.0,90,-99.99,,,-99.99,0.000000,,2013-07-23 10:00:00,
2013-07-23 06:44:00,67.0,64.0,-100.00,SSW,202,2.0,-999.0,90,-99.99,,,-99.99,0.000000,,2013-07-23 10:44:00,
2013-07-23 06:52:00,67.0,64.0,-100.00,SSW,202,2.0,-999.0,90,-99.99,,,-99.99,0.000000,,2013-07-23 10:52:00,
2013-07-23 07:00:00,68.0,64.0,-100.00,SSW,202,2.0,-999.0,87,-99.99,,,-99.99,19.719999,,2013-07-23 11:00:00,
2013-07-23 07:43:00,68.0,64.0,-100.00,SSW,202,2.0,-999.0,87,-99.99,,,-99.99,19.719999,,2013-07-23 11:43:00,
2013-07-23 07:52:00,68.0,64.0,-100.00,SSW,202,2.0,-999.0,87,-99.99,,,-99.99,19.719999,,2013-07-23 11:52:00,
2013-07-23 08:00:00,69.0,64.0,-100.00,South,180,4.0,-999.0,85,-99.99,,,-99.99,74.239998,,2013-07-23 12:00:00,
2013-07-23 08:43:00,69.0,64.0,-100.00,South,180,4.0,-999.0,85,-99.99,,,-99.99,74.239998,,2013-07-23 12:43:00,
2013-07-23 09:00:00,70.0,66.0,-100.00,SSW,202,5.0,-999.0,85,0.09,,,-99.99,60.320000,,2013-07-23 13:00:00,
2013-07-23 09:43:00,70.0,66.0,-100.00,SSW,202,5.0,-999.0,85,0.09,,,-99.99,60.320000,,2013-07-23 13:43:00,
2013-07-23 09:52:00,70.0,66.0,-100.00,SSW,202,5.0,-999.0,85,0.09,,,-99.99,60.320000,,2013-07-23 13:52:00,
2013-07-23 10:00:00,70.0,67.0,-100.00,SSW,202,3.0,-999.0,89,0.02,,,-99.99,103.239998,,2013-07-23 14:00:00,
2013-07-23 10:44:00,70.0,67.0,-100.00,SSW,202,3.0,-999.0,89,0.02,,,-99.99,103.239998,,2013-07-23 14:44:00,
2013-07-23 10:53:00,70.0,67.0,-100.00,SSW,202,3.0,-999.0,89,0.02,,,-99.99,103.239998,,2013-07-23 14:53:00,
2013-07-23 11:00:00,71.0,68.0,-100.00,South,180,3.0,-999.0,88,-99.99,,,-99.99,136.880005,,2013-07-23 15:00:00,
2013-07-23 11:43:00,71.0,68.0,-100.00,South,180,3.0,-999.0,88,-99.99,,,-99.99,136.880005,,2013-07-23 15:43:00,
2013-07-23 11:52:00,71.0,68.0,-100.00,South,180,3.0,-999.0,88,-99.99,,,-99.99,136.880005,,2013-07-23 15:52:00,
2013-07-23 12:00:00,71.0,67.0,-100.00,South,180,5.0,-999.0,88,-99.99,,,-99.99,89.320000,,2013-07-23 16:00:00,
2013-07-23 12:43:00,71.0,67.0,-100.00,South,180,5.0,-999.0,88,-99.99,,,-99.99,89.320000,,2013-07-23 16:43:00,
2013-07-23 12:52:00,71.0,67.0,-100.00,South,180,5.0,-999.0,88,-99.99,,,-99.99,89.320000,,2013-07-23 16:52:00,
2013-07-23 14:00:00,76.0,69.0,-100.00,SW,225,3.0,-999.0,78,-99.99,,,-99.99,400.200012,,2013-07-23 18:00:00,
2013-07-23 14:49:00,76.0,69.0,-100.00,SW,225,3.0,-999.0,78,-99.99,,,-99.99,400.200012,,2013-07-23 18:49:00,
2013-07-23 14:58:00,76.0,69.0,-100.00,SW,225,3.0,-999.0,78,-99.99,,,-99.99,400.200012,,2013-07-23 18:58:00,
2013-07-23 15:00:00,70.0,65.0,-100.00,SW,225,6.0,-999.0,84,0.21,,,-99.99,27.840000,,2013-07-23 19:00:00,
2013-07-23 15:49:00,70.0,65.0,-100.00,SW,225,6.0,-999.0,84,0.21,,,-99.99,27.840000,,2013-07-23 19:49:00,
2013-07-23 15:55:00,70.0,65.0,-100.00,SW,225,6.0,-999.0,84,0.21,,,-99.99,27.840000,,2013-07-23 19:55:00,
2013-07-23 16:00:00,72.0,66.0,-100.00,West,270,6.0,-999.0,82,-99.99,,,-99.99,357.279999,,2013-07-23 20:00:00,
2013-07-23 16:48:00,72.0,66.0,-100.00,West,270,6.0,-999.0,82,-99.99,,,-99.99,357.279999,,2013-07-23 20:48:00,
2013-07-23 16:59:00,72.0,66.0,-100.00,West,270,6.0,-999.0,82,-99.99,,,-99.99,357.279999,,2013-07-23 20:59:00,
2013-07-23 17:00:00,74.0,66.0,-100.00,WNW,292,8.0,-999.0,76,-99.99,,,-99.99,287.679993,,2013-07-23 21:00:00,
2013-07-23 17:48:00,74.0,66.0,-100.00,WNW,292,8.0,-999.0,76,-99.99,,,-99.99,287.679993,,2013-07-23 21:48:00,
2013-07-23 17:57:00,74.0,66.0,-100.00,WNW,292,8.0,-999.0,76,-99.99,,,-99.99,287.679993,,2013-07-23 21:57:00,
2013-07-23 18:00:00,75.0,63.0,-100.00,West,270,8.0,-999.0,66,-99.99,,,-99.99,393.239990,,2013-07-23 22:00:00,
2013-07-23 18:47:00,75.0,63.0,-100.00,West,270,8.0,-999.0,66,-99.99,,,-99.99,393.239990,,2013-07-23 22:47:00,
2013-07-23 19:00:00,74.0,59.0,-100.00,West,270,8.0,-999.0,59,-99.99,,,-99.99,272.600006,,2013-07-23 23:00:00,
2013-07-23 20:00:00,72.0,57.0,-100.00,WNW,292,8.0,-999.0,59,-99.99,,,-99.99,135.720001,,2013-07-24 00:00:00,
2013-07-23 20:50:00,72.0,57.0,-100.00,WNW,292,8.0,-999.0,59,-99.99,,,-99.99,135.720001,,2013-07-24 00:50:00,
2013-07-23 20:58:00,72.0,57.0,-100.00,WNW,292,8.0,-999.0,59,-99.99,,,-99.99,135.720001,,2013-07-24 00:58:00,
2013-07-23 21:00:00,67.0,54.0,-100.00,West,270,9.0,-999.0,63,-99.99,,,-99.99,45.240002,,2013-07-24 01:00:00,
2013-07-23 21:47:00,67.0,54.0,-100.00,West,270,9.0,-999.0,63,-99.99,,,-99.99,45.240002,,2013-07-24 01:47:00,
2013-07-23 22:00:00,63.0,52.0,-100.00,WSW,247,8.0,-999.0,69,-99.99,,,-99.99,1.160000,,2013-07-24 02:00:00,
2013-07-23 22:48:00,63.0,52.0,-100.00,WSW,247,8.0,-999.0,69,-99.99,,,-99.99,1.160000,,2013-07-24 02:48:00,
2013-07-23 22:57:00,63.0,52.0,-100.00,WSW,247,8.0,-999.0,69,-99.99,,,-99.99,1.160000,,2013-07-24 02:57:00,
2013-07-23 23:00:00,60.0,52.0,-100.00,West,270,5.0,-999.0,74,-99.99,,,-99.99,0.000000,,2013-07-24 03:00:00,
2013-07-23 23:46:00,60.0,52.0,-100.00,West,270,5.0,-999.0,74,-99.99,,,-99.99,0.000000,,2013-07-24 03:46:00,
2013-07-23 23:58:00,60.0,52.0,-100.00,West,270,5.0,-999.0,74,-99.99,,,-99.99,0.000000,,2013-07-24 03:58:00,